sensor_id;sensor_type;location;lat;lon;timestamp;temperature;humidity
16158;DHT22;8184;60.256;18.694;2023-11-21T00:00:09;1.90;99.90
16158;DHT22;8184;60.256;18.694;2023-11-21T00:02:40;1.80;99.90
16158;DHT22;8184;60.256;18.694;2023-11-21T00:05:09;1.80;99.90
16158;DHT22;8184;60.256;18.694;2023-11-21T00:07:41;1.90;99.90
16158;DHT22;8184;60.256;18.694;2023-11-21T00:10:10;1.90;99.90
16158;DHT22;8184;60.256;18.694;2023-11-21T00:12:41;1.80;99.90
16158;DHT22;8184;60.256;18.694;2023-11-21T00:15:10;1.70;99.90
16158;DHT22;8184;60.256;18.694;2023-11-21T00:17:39;1.70;99.90
16158;DHT22;8184;60.256;18.694;2023-11-21T00:20:07;1.60;99.90
16158;DHT22;8184;60.256;18.694;2023-11-21T00:22:41;1.60;99.90
16158;DHT22;8184;60.256;18.694;2023-11-21T00:25:10;1.60;99.90
16158;DHT22;8184;60.256;18.694;2023-11-21T00:27:44;1.70;99.90
16158;DHT22;8184;60.256;18.694;2023-11-21T00:30:13;1.90;99.90
16158;DHT22;8184;60.256;18.694;2023-11-21T00:32:41;1.90;99.90
16158;DHT22;8184;60.256;18.694;2023-11-21T00:35:10;1.80;99.90
16158;DHT22;8184;60.256;18.694;2023-11-21T00:37:38;1.80;99.90
16158;DHT22;8184;60.256;18.694;2023-11-21T00:40:09;1.80;99.90
16158;DHT22;8184;60.256;18.694;2023-11-21T00:42:38;1.80;99.90
16158;DHT22;8184;60.256;18.694;2023-11-21T00:45:07;1.80;99.90
16158;DHT22;8184;60.256;18.694;2023-11-21T00:47:35;1.70;99.90
16158;DHT22;8184;60.256;18.694;2023-11-21T00:50:04;1.70;99.90
16158;DHT22;8184;60.256;18.694;2023-11-21T00:52:34;1.70;99.90
16158;DHT22;8184;60.256;18.694;2023-11-21T00:55:03;1.80;99.90
16158;DHT22;8184;60.256;18.694;2023-11-21T00:57:33;1.80;99.90
16158;DHT22;8184;60.256;18.694;2023-11-21T01:00:05;1.80;99.90
16158;DHT22;8184;60.256;18.694;2023-11-21T01:02:36;1.80;99.90
16158;DHT22;8184;60.256;18.694;2023-11-21T01:05:05;1.90;99.90
16158;DHT22;8184;60.256;18.694;2023-11-21T01:07:34;1.90;99.90
16158;DHT22;8184;60.256;18.694;2023-11-21T01:10:03;2.00;99.90
16158;DHT22;8184;60.256;18.694;2023-11-21T01:12:35;1.90;99.90
16158;DHT22;8184;60.256;18.694;2023-11-21T01:15:05;1.90;99.90
16158;DHT22;8184;60.256;18.694;2023-11-21T01:17:35;2.00;99.90
16158;DHT22;8184;60.256;18.694;2023-11-21T01:20:03;2.00;99.90
16158;DHT22;8184;60.256;18.694;2023-11-21T01:22:38;1.90;99.90
16158;DHT22;8184;60.256;18.694;2023-11-21T01:25:06;2.00;99.90
16158;DHT22;8184;60.256;18.694;2023-11-21T01:27:36;2.00;99.90
16158;DHT22;8184;60.256;18.694;2023-11-21T01:30:05;2.00;99.90
16158;DHT22;8184;60.256;18.694;2023-11-21T01:32:35;2.00;99.90
16158;DHT22;8184;60.256;18.694;2023-11-21T01:35:04;2.00;99.90
16158;DHT22;8184;60.256;18.694;2023-11-21T01:37:33;2.00;99.90
16158;DHT22;8184;60.256;18.694;2023-11-21T01:40:01;2.00;99.90
16158;DHT22;8184;60.256;18.694;2023-11-21T01:42:32;2.00;99.90
16158;DHT22;8184;60.256;18.694;2023-11-21T01:45:02;2.00;99.90
16158;DHT22;8184;60.256;18.694;2023-11-21T01:47:32;2.00;99.90
16158;DHT22;8184;60.256;18.694;2023-11-21T01:50:03;2.00;99.90
16158;DHT22;8184;60.256;18.694;2023-11-21T01:52:32;2.00;99.90
16158;DHT22;8184;60.256;18.694;2023-11-21T01:55:02;1.90;99.90
16158;DHT22;8184;60.256;18.694;2023-11-21T01:57:31;2.00;99.90
16158;DHT22;8184;60.256;18.694;2023-11-21T01:59:59;1.90;99.90
16158;DHT22;8184;60.256;18.694;2023-11-21T02:02:44;1.90;99.90
16158;DHT22;8184;60.256;18.694;2023-11-21T02:05:13;1.90;99.90
16158;DHT22;8184;60.256;18.694;2023-11-21T02:07:41;2.00;99.90
16158;DHT22;8184;60.256;18.694;2023-11-21T02:10:10;1.90;99.90
16158;DHT22;8184;60.256;18.694;2023-11-21T02:12:41;1.90;99.90
16158;DHT22;8184;60.256;18.694;2023-11-21T02:15:10;1.90;99.90
16158;DHT22;8184;60.256;18.694;2023-11-21T02:17:48;1.90;99.90
16158;DHT22;8184;60.256;18.694;2023-11-21T02:20:20;1.80;99.90
16158;DHT22;8184;60.256;18.694;2023-11-21T02:22:51;1.80;99.90
16158;DHT22;8184;60.256;18.694;2023-11-21T02:25:22;1.80;99.90
16158;DHT22;8184;60.256;18.694;2023-11-21T02:27:51;1.80;99.90
16158;DHT22;8184;60.256;18.694;2023-11-21T02:30:21;1.90;99.90
16158;DHT22;8184;60.256;18.694;2023-11-21T02:32:49;1.90;99.90
16158;DHT22;8184;60.256;18.694;2023-11-21T02:35:19;1.90;99.90
16158;DHT22;8184;60.256;18.694;2023-11-21T02:37:48;1.90;99.90
16158;DHT22;8184;60.256;18.694;2023-11-21T02:40:21;1.90;99.90
16158;DHT22;8184;60.256;18.694;2023-11-21T02:42:51;1.80;99.90
16158;DHT22;8184;60.256;18.694;2023-11-21T02:45:20;1.80;99.90
16158;DHT22;8184;60.256;18.694;2023-11-21T02:47:51;1.70;99.90
16158;DHT22;8184;60.256;18.694;2023-11-21T02:50:20;1.70;99.90
16158;DHT22;8184;60.256;18.694;2023-11-21T02:52:49;1.80;99.90
16158;DHT22;8184;60.256;18.694;2023-11-21T02:55:18;1.80;99.90
16158;DHT22;8184;60.256;18.694;2023-11-21T02:57:48;1.80;99.90
16158;DHT22;8184;60.256;18.694;2023-11-21T03:00:17;1.80;99.90
16158;DHT22;8184;60.256;18.694;2023-11-21T03:02:51;1.80;99.90
16158;DHT22;8184;60.256;18.694;2023-11-21T03:05:20;1.90;99.90
16158;DHT22;8184;60.256;18.694;2023-11-21T03:07:48;1.90;99.90
16158;DHT22;8184;60.256;18.694;2023-11-21T03:10:16;1.90;99.90
16158;DHT22;8184;60.256;18.694;2023-11-21T03:12:47;1.90;99.90
16158;DHT22;8184;60.256;18.694;2023-11-21T03:15:15;1.90;99.90
16158;DHT22;8184;60.256;18.694;2023-11-21T03:17:44;1.90;99.90
16158;DHT22;8184;60.256;18.694;2023-11-21T03:20:12;1.80;99.90
16158;DHT22;8184;60.256;18.694;2023-11-21T03:22:41;1.70;99.90
16158;DHT22;8184;60.256;18.694;2023-11-21T03:25:10;1.50;99.90
16158;DHT22;8184;60.256;18.694;2023-11-21T03:27:38;1.40;99.90
16158;DHT22;8184;60.256;18.694;2023-11-21T03:30:08;1.30;99.90
16158;DHT22;8184;60.256;18.694;2023-11-21T03:32:38;1.30;99.90
16158;DHT22;8184;60.256;18.694;2023-11-21T03:35:06;1.40;99.90
16158;DHT22;8184;60.256;18.694;2023-11-21T03:37:34;1.40;99.90
16158;DHT22;8184;60.256;18.694;2023-11-21T03:40:05;1.50;99.90
16158;DHT22;8184;60.256;18.694;2023-11-21T03:42:35;1.60;99.90
16158;DHT22;8184;60.256;18.694;2023-11-21T03:45:04;1.60;99.90
16158;DHT22;8184;60.256;18.694;2023-11-21T03:47:33;1.70;99.90
16158;DHT22;8184;60.256;18.694;2023-11-21T03:50:02;1.70;99.90
16158;DHT22;8184;60.256;18.694;2023-11-21T03:52:30;1.70;99.90
16158;DHT22;8184;60.256;18.694;2023-11-21T03:54:59;1.80;99.90
16158;DHT22;8184;60.256;18.694;2023-11-21T03:57:27;1.70;99.90
16158;DHT22;8184;60.256;18.694;2023-11-21T03:59:56;1.70;99.90
16158;DHT22;8184;60.256;18.694;2023-11-21T04:02:24;1.70;99.90
16158;DHT22;8184;60.256;18.694;2023-11-21T04:04:58;1.70;99.90
16158;DHT22;8184;60.256;18.694;2023-11-21T04:07:29;1.70;99.90
16158;DHT22;8184;60.256;18.694;2023-11-21T04:09:58;1.70;99.90
16158;DHT22;8184;60.256;18.694;2023-11-21T04:12:26;1.70;99.90
16158;DHT22;8184;60.256;18.694;2023-11-21T04:14:54;1.70;99.90
16158;DHT22;8184;60.256;18.694;2023-11-21T04:17:22;1.70;99.90
16158;DHT22;8184;60.256;18.694;2023-11-21T04:19:51;1.70;99.90
16158;DHT22;8184;60.256;18.694;2023-11-21T04:22:20;1.60;99.90
16158;DHT22;8184;60.256;18.694;2023-11-21T04:24:48;1.60;99.90
16158;DHT22;8184;60.256;18.694;2023-11-21T04:27:17;1.60;99.90
16158;DHT22;8184;60.256;18.694;2023-11-21T04:29:46;1.60;99.90
16158;DHT22;8184;60.256;18.694;2023-11-21T04:32:15;1.60;99.90
16158;DHT22;8184;60.256;18.694;2023-11-21T04:34:43;1.60;99.90
16158;DHT22;8184;60.256;18.694;2023-11-21T04:37:12;1.50;99.90
16158;DHT22;8184;60.256;18.694;2023-11-21T04:39:43;1.60;99.90
16158;DHT22;8184;60.256;18.694;2023-11-21T04:42:12;1.60;99.90
16158;DHT22;8184;60.256;18.694;2023-11-21T04:44:40;1.60;99.90
16158;DHT22;8184;60.256;18.694;2023-11-21T04:47:09;1.50;99.90
16158;DHT22;8184;60.256;18.694;2023-11-21T04:49:37;1.50;99.90
16158;DHT22;8184;60.256;18.694;2023-11-21T04:52:05;1.60;99.90
16158;DHT22;8184;60.256;18.694;2023-11-21T04:54:36;1.60;99.90
16158;DHT22;8184;60.256;18.694;2023-11-21T04:57:06;1.70;99.90
16158;DHT22;8184;60.256;18.694;2023-11-21T04:59:35;1.70;99.90
16158;DHT22;8184;60.256;18.694;2023-11-21T05:02:03;1.80;99.90
16158;DHT22;8184;60.256;18.694;2023-11-21T05:04:32;1.70;99.90
16158;DHT22;8184;60.256;18.694;2023-11-21T05:07:00;1.70;99.90
16158;DHT22;8184;60.256;18.694;2023-11-21T05:09:28;1.70;99.90
16158;DHT22;8184;60.256;18.694;2023-11-21T05:11:59;1.70;99.90
16158;DHT22;8184;60.256;18.694;2023-11-21T05:14:29;1.70;99.90
16158;DHT22;8184;60.256;18.694;2023-11-21T05:16:57;1.60;99.90
16158;DHT22;8184;60.256;18.694;2023-11-21T05:19:26;1.60;99.90
16158;DHT22;8184;60.256;18.694;2023-11-21T05:21:54;1.60;99.90
16158;DHT22;8184;60.256;18.694;2023-11-21T05:24:22;1.60;99.90
16158;DHT22;8184;60.256;18.694;2023-11-21T05:26:51;1.60;99.90
16158;DHT22;8184;60.256;18.694;2023-11-21T05:29:22;1.50;99.90
16158;DHT22;8184;60.256;18.694;2023-11-21T05:31:53;1.50;99.90
16158;DHT22;8184;60.256;18.694;2023-11-21T05:34:22;1.40;99.90
16158;DHT22;8184;60.256;18.694;2023-11-21T05:36:51;1.30;99.90
16158;DHT22;8184;60.256;18.694;2023-11-21T05:39:19;1.20;99.90
16158;DHT22;8184;60.256;18.694;2023-11-21T05:41:48;1.00;99.90
16158;DHT22;8184;60.256;18.694;2023-11-21T05:44:16;1.00;99.90
16158;DHT22;8184;60.256;18.694;2023-11-21T05:46:45;1.00;99.90
16158;DHT22;8184;60.256;18.694;2023-11-21T05:49:14;0.90;99.90
16158;DHT22;8184;60.256;18.694;2023-11-21T05:51:43;0.90;99.90
16158;DHT22;8184;60.256;18.694;2023-11-21T05:54:15;0.80;99.90
16158;DHT22;8184;60.256;18.694;2023-11-21T05:56:43;0.80;99.90
16158;DHT22;8184;60.256;18.694;2023-11-21T05:59:11;0.90;99.90
16158;DHT22;8184;60.256;18.694;2023-11-21T06:01:43;1.00;99.90
16158;DHT22;8184;60.256;18.694;2023-11-21T06:04:12;1.10;99.90
16158;DHT22;8184;60.256;18.694;2023-11-21T06:06:42;1.20;99.90
16158;DHT22;8184;60.256;18.694;2023-11-21T06:09:11;1.20;99.90
16158;DHT22;8184;60.256;18.694;2023-11-21T06:11:40;1.30;99.90
16158;DHT22;8184;60.256;18.694;2023-11-21T06:14:08;1.30;99.90
16158;DHT22;8184;60.256;18.694;2023-11-21T06:16:37;1.40;99.90
16158;DHT22;8184;60.256;18.694;2023-11-21T06:19:07;1.40;99.90
16158;DHT22;8184;60.256;18.694;2023-11-21T06:21:35;1.40;99.90
16158;DHT22;8184;60.256;18.694;2023-11-21T06:24:05;1.40;99.90
16158;DHT22;8184;60.256;18.694;2023-11-21T06:26:34;1.40;99.90
16158;DHT22;8184;60.256;18.694;2023-11-21T06:29:02;1.40;99.90
16158;DHT22;8184;60.256;18.694;2023-11-21T06:31:30;1.40;99.90
16158;DHT22;8184;60.256;18.694;2023-11-21T06:33:59;1.40;99.90
16158;DHT22;8184;60.256;18.694;2023-11-21T06:36:28;1.30;99.90
16158;DHT22;8184;60.256;18.694;2023-11-21T06:38:56;1.30;99.90
16158;DHT22;8184;60.256;18.694;2023-11-21T06:41:25;1.30;99.90
16158;DHT22;8184;60.256;18.694;2023-11-21T06:43:54;1.40;99.90
16158;DHT22;8184;60.256;18.694;2023-11-21T06:46:22;1.30;99.90
16158;DHT22;8184;60.256;18.694;2023-11-21T06:48:52;1.30;99.90
16158;DHT22;8184;60.256;18.694;2023-11-21T06:51:20;1.20;99.90
16158;DHT22;8184;60.256;18.694;2023-11-21T06:53:49;1.30;99.90
16158;DHT22;8184;60.256;18.694;2023-11-21T06:56:17;1.30;99.90
16158;DHT22;8184;60.256;18.694;2023-11-21T06:58:55;1.20;99.90
16158;DHT22;8184;60.256;18.694;2023-11-21T07:01:27;1.20;99.90
16158;DHT22;8184;60.256;18.694;2023-11-21T07:03:55;1.00;99.90
16158;DHT22;8184;60.256;18.694;2023-11-21T07:06:23;1.00;99.90
16158;DHT22;8184;60.256;18.694;2023-11-21T07:08:52;1.00;99.90
16158;DHT22;8184;60.256;18.694;2023-11-21T07:11:20;1.00;99.90
16158;DHT22;8184;60.256;18.694;2023-11-21T07:13:49;1.00;99.90
16158;DHT22;8184;60.256;18.694;2023-11-21T07:16:19;1.00;99.90
16158;DHT22;8184;60.256;18.694;2023-11-21T07:18:47;1.10;99.90
16158;DHT22;8184;60.256;18.694;2023-11-21T07:21:16;1.00;99.90
16158;DHT22;8184;60.256;18.694;2023-11-21T07:23:44;1.10;99.90
16158;DHT22;8184;60.256;18.694;2023-11-21T07:26:12;1.00;99.90
16158;DHT22;8184;60.256;18.694;2023-11-21T07:28:41;1.10;99.90
16158;DHT22;8184;60.256;18.694;2023-11-21T07:31:09;1.10;99.90
16158;DHT22;8184;60.256;18.694;2023-11-21T07:33:39;1.10;99.90
16158;DHT22;8184;60.256;18.694;2023-11-21T07:36:07;1.00;99.90
16158;DHT22;8184;60.256;18.694;2023-11-21T07:38:37;1.00;99.90
16158;DHT22;8184;60.256;18.694;2023-11-21T07:41:05;1.10;99.90
16158;DHT22;8184;60.256;18.694;2023-11-21T07:43:44;1.00;99.90
16158;DHT22;8184;60.256;18.694;2023-11-21T07:46:13;1.10;99.90
16158;DHT22;8184;60.256;18.694;2023-11-21T07:48:43;1.10;99.90
16158;DHT22;8184;60.256;18.694;2023-11-21T07:51:12;1.10;99.90
16158;DHT22;8184;60.256;18.694;2023-11-21T07:53:41;1.00;99.90
16158;DHT22;8184;60.256;18.694;2023-11-21T07:56:09;1.00;99.90
16158;DHT22;8184;60.256;18.694;2023-11-21T07:58:38;1.00;99.90
16158;DHT22;8184;60.256;18.694;2023-11-21T08:01:06;1.00;99.90
16158;DHT22;8184;60.256;18.694;2023-11-21T08:03:35;1.00;99.90
16158;DHT22;8184;60.256;18.694;2023-11-21T08:06:05;1.00;99.90
16158;DHT22;8184;60.256;18.694;2023-11-21T08:08:36;1.00;99.90
16158;DHT22;8184;60.256;18.694;2023-11-21T08:11:04;0.90;99.90
16158;DHT22;8184;60.256;18.694;2023-11-21T08:13:35;1.00;99.90
16158;DHT22;8184;60.256;18.694;2023-11-21T08:16:03;1.00;99.90
16158;DHT22;8184;60.256;18.694;2023-11-21T08:18:34;0.90;99.90
16158;DHT22;8184;60.256;18.694;2023-11-21T08:21:02;0.90;99.90
16158;DHT22;8184;60.256;18.694;2023-11-21T08:23:33;0.90;99.90
16158;DHT22;8184;60.256;18.694;2023-11-21T08:26:01;0.90;99.90
16158;DHT22;8184;60.256;18.694;2023-11-21T08:28:32;0.90;99.90
16158;DHT22;8184;60.256;18.694;2023-11-21T08:31:00;0.80;99.90
16158;DHT22;8184;60.256;18.694;2023-11-21T08:33:29;0.90;99.90
16158;DHT22;8184;60.256;18.694;2023-11-21T08:35:57;0.90;99.90
16158;DHT22;8184;60.256;18.694;2023-11-21T08:38:28;0.90;99.90
16158;DHT22;8184;60.256;18.694;2023-11-21T08:40:57;0.90;99.90
16158;DHT22;8184;60.256;18.694;2023-11-21T08:43:27;1.00;99.90
16158;DHT22;8184;60.256;18.694;2023-11-21T08:45:57;1.00;99.90
16158;DHT22;8184;60.256;18.694;2023-11-21T08:48:25;1.00;99.90
16158;DHT22;8184;60.256;18.694;2023-11-21T08:50:56;1.00;99.90
16158;DHT22;8184;60.256;18.694;2023-11-21T08:53:24;1.00;99.90
16158;DHT22;8184;60.256;18.694;2023-11-21T08:55:53;1.00;99.90
16158;DHT22;8184;60.256;18.694;2023-11-21T08:58:23;1.00;99.90
16158;DHT22;8184;60.256;18.694;2023-11-21T09:00:51;1.00;99.90
16158;DHT22;8184;60.256;18.694;2023-11-21T09:03:20;1.00;99.90
16158;DHT22;8184;60.256;18.694;2023-11-21T09:05:51;1.00;99.90
16158;DHT22;8184;60.256;18.694;2023-11-21T09:08:20;1.00;99.90
16158;DHT22;8184;60.256;18.694;2023-11-21T09:10:48;1.00;99.90
16158;DHT22;8184;60.256;18.694;2023-11-21T09:13:17;1.00;99.90
16158;DHT22;8184;60.256;18.694;2023-11-21T09:15:48;1.00;99.90
16158;DHT22;8184;60.256;18.694;2023-11-21T09:18:17;1.00;99.90
16158;DHT22;8184;60.256;18.694;2023-11-21T09:20:46;0.90;99.90
16158;DHT22;8184;60.256;18.694;2023-11-21T09:23:14;0.90;99.90
16158;DHT22;8184;60.256;18.694;2023-11-21T09:25:42;0.90;99.90
16158;DHT22;8184;60.256;18.694;2023-11-21T09:28:13;0.90;99.90
16158;DHT22;8184;60.256;18.694;2023-11-21T09:30:41;0.90;99.90
16158;DHT22;8184;60.256;18.694;2023-11-21T09:33:11;1.00;99.90
16158;DHT22;8184;60.256;18.694;2023-11-21T09:35:39;0.90;99.90
16158;DHT22;8184;60.256;18.694;2023-11-21T09:38:08;1.00;99.90
16158;DHT22;8184;60.256;18.694;2023-11-21T09:40:38;0.90;99.90
16158;DHT22;8184;60.256;18.694;2023-11-21T09:43:07;0.90;99.90
16158;DHT22;8184;60.256;18.694;2023-11-21T09:45:44;0.90;99.90
16158;DHT22;8184;60.256;18.694;2023-11-21T09:48:15;0.90;99.90
16158;DHT22;8184;60.256;18.694;2023-11-21T09:50:44;0.90;99.90
16158;DHT22;8184;60.256;18.694;2023-11-21T09:53:18;0.90;99.90
16158;DHT22;8184;60.256;18.694;2023-11-21T09:55:50;0.90;99.90
16158;DHT22;8184;60.256;18.694;2023-11-21T09:58:19;0.90;99.90
16158;DHT22;8184;60.256;18.694;2023-11-21T10:00:52;0.90;99.90
16158;DHT22;8184;60.256;18.694;2023-11-21T10:03:22;1.00;99.90
16158;DHT22;8184;60.256;18.694;2023-11-21T10:05:51;0.90;99.90
16158;DHT22;8184;60.256;18.694;2023-11-21T10:08:21;0.90;99.90
16158;DHT22;8184;60.256;18.694;2023-11-21T10:10:51;0.90;99.90
16158;DHT22;8184;60.256;18.694;2023-11-21T10:13:21;0.90;99.90
16158;DHT22;8184;60.256;18.694;2023-11-21T10:15:50;0.90;99.90
16158;DHT22;8184;60.256;18.694;2023-11-21T10:18:18;0.90;99.90
16158;DHT22;8184;60.256;18.694;2023-11-21T10:20:51;0.90;99.90
16158;DHT22;8184;60.256;18.694;2023-11-21T10:23:21;0.90;99.90
16158;DHT22;8184;60.256;18.694;2023-11-21T10:25:50;0.90;99.90
16158;DHT22;8184;60.256;18.694;2023-11-21T10:28:20;0.90;99.90
16158;DHT22;8184;60.256;18.694;2023-11-21T10:30:48;0.90;99.90
16158;DHT22;8184;60.256;18.694;2023-11-21T10:33:17;1.00;99.90
16158;DHT22;8184;60.256;18.694;2023-11-21T10:35:45;1.00;99.90
16158;DHT22;8184;60.256;18.694;2023-11-21T10:38:19;1.00;99.90
16158;DHT22;8184;60.256;18.694;2023-11-21T10:40:52;1.00;99.90
16158;DHT22;8184;60.256;18.694;2023-11-21T10:43:24;1.00;99.90
16158;DHT22;8184;60.256;18.694;2023-11-21T10:45:53;0.90;99.90
16158;DHT22;8184;60.256;18.694;2023-11-21T10:48:26;0.90;99.90
16158;DHT22;8184;60.256;18.694;2023-11-21T10:50:56;0.90;99.90
16158;DHT22;8184;60.256;18.694;2023-11-21T10:53:29;0.90;99.90
16158;DHT22;8184;60.256;18.694;2023-11-21T10:56:01;1.00;99.90
16158;DHT22;8184;60.256;18.694;2023-11-21T10:58:30;1.00;99.90
16158;DHT22;8184;60.256;18.694;2023-11-21T11:00:59;1.00;99.90
16158;DHT22;8184;60.256;18.694;2023-11-21T11:03:29;1.00;99.90
16158;DHT22;8184;60.256;18.694;2023-11-21T11:06:00;1.00;99.90
16158;DHT22;8184;60.256;18.694;2023-11-21T11:08:30;1.00;99.90
16158;DHT22;8184;60.256;18.694;2023-11-21T11:10:59;1.00;99.90
16158;DHT22;8184;60.256;18.694;2023-11-21T11:13:30;1.00;99.90
16158;DHT22;8184;60.256;18.694;2023-11-21T11:15:59;1.00;99.90
16158;DHT22;8184;60.256;18.694;2023-11-21T11:18:28;1.00;99.90
16158;DHT22;8184;60.256;18.694;2023-11-21T11:20:59;1.00;99.90
16158;DHT22;8184;60.256;18.694;2023-11-21T11:23:35;1.00;99.90
16158;DHT22;8184;60.256;18.694;2023-11-21T11:26:09;1.00;99.90
16158;DHT22;8184;60.256;18.694;2023-11-21T11:28:44;1.00;99.90
16158;DHT22;8184;60.256;18.694;2023-11-21T11:31:18;1.00;99.90
16158;DHT22;8184;60.256;18.694;2023-11-21T11:33:52;1.00;99.90
16158;DHT22;8184;60.256;18.694;2023-11-21T11:36:27;1.00;99.90
16158;DHT22;8184;60.256;18.694;2023-11-21T11:38:57;1.00;99.90
16158;DHT22;8184;60.256;18.694;2023-11-21T11:41:26;1.00;99.90
16158;DHT22;8184;60.256;18.694;2023-11-21T11:43:54;1.00;99.90
16158;DHT22;8184;60.256;18.694;2023-11-21T11:49:06;1.00;99.90
16158;DHT22;8184;60.256;18.694;2023-11-21T11:51:35;1.00;99.90
16158;DHT22;8184;60.256;18.694;2023-11-21T11:54:05;1.00;99.90
16158;DHT22;8184;60.256;18.694;2023-11-21T11:56:34;0.90;99.90
16158;DHT22;8184;60.256;18.694;2023-11-21T11:59:04;0.90;99.90
16158;DHT22;8184;60.256;18.694;2023-11-21T12:01:36;0.90;99.90
16158;DHT22;8184;60.256;18.694;2023-11-21T12:06:50;0.90;99.90
16158;DHT22;8184;60.256;18.694;2023-11-21T12:09:20;0.90;99.90
16158;DHT22;8184;60.256;18.694;2023-11-21T12:11:49;0.90;99.90
16158;DHT22;8184;60.256;18.694;2023-11-21T12:14:18;0.90;99.90
16158;DHT22;8184;60.256;18.694;2023-11-21T12:16:46;0.90;99.90
16158;DHT22;8184;60.256;18.694;2023-11-21T12:19:15;0.90;99.90
16158;DHT22;8184;60.256;18.694;2023-11-21T12:21:43;0.80;99.90
16158;DHT22;8184;60.256;18.694;2023-11-21T12:24:12;0.80;99.90
16158;DHT22;8184;60.256;18.694;2023-11-21T12:26:42;0.80;99.90
16158;DHT22;8184;60.256;18.694;2023-11-21T12:29:11;0.80;99.90
16158;DHT22;8184;60.256;18.694;2023-11-21T12:31:39;0.80;99.90
16158;DHT22;8184;60.256;18.694;2023-11-21T12:34:08;0.80;99.90
16158;DHT22;8184;60.256;18.694;2023-11-21T12:36:38;0.70;99.90
16158;DHT22;8184;60.256;18.694;2023-11-21T12:39:07;0.70;99.90
16158;DHT22;8184;60.256;18.694;2023-11-21T12:41:37;0.70;99.90
16158;DHT22;8184;60.256;18.694;2023-11-21T12:44:11;0.70;99.90
16158;DHT22;8184;60.256;18.694;2023-11-21T12:46:42;0.60;99.90
16158;DHT22;8184;60.256;18.694;2023-11-21T12:49:12;0.60;99.90
16158;DHT22;8184;60.256;18.694;2023-11-21T12:51:45;0.60;99.90
16158;DHT22;8184;60.256;18.694;2023-11-21T12:54:13;0.50;99.90
16158;DHT22;8184;60.256;18.694;2023-11-21T12:56:44;0.50;99.90
16158;DHT22;8184;60.256;18.694;2023-11-21T12:59:15;0.50;99.90
16158;DHT22;8184;60.256;18.694;2023-11-21T13:01:45;0.50;99.90
16158;DHT22;8184;60.256;18.694;2023-11-21T13:04:14;0.60;99.90
16158;DHT22;8184;60.256;18.694;2023-11-21T13:06:42;0.60;99.90
16158;DHT22;8184;60.256;18.694;2023-11-21T13:09:10;0.60;99.90
16158;DHT22;8184;60.256;18.694;2023-11-21T13:11:44;0.60;99.90
16158;DHT22;8184;60.256;18.694;2023-11-21T13:14:12;0.60;99.90
16158;DHT22;8184;60.256;18.694;2023-11-21T13:16:42;0.60;99.90
16158;DHT22;8184;60.256;18.694;2023-11-21T13:19:13;0.50;99.90
16158;DHT22;8184;60.256;18.694;2023-11-21T13:21:41;0.50;99.90
16158;DHT22;8184;60.256;18.694;2023-11-21T13:24:10;0.50;99.90
16158;DHT22;8184;60.256;18.694;2023-11-21T13:26:39;0.40;99.90
16158;DHT22;8184;60.256;18.694;2023-11-21T13:29:07;0.40;99.90
16158;DHT22;8184;60.256;18.694;2023-11-21T13:31:36;0.30;99.90
16158;DHT22;8184;60.256;18.694;2023-11-21T13:34:07;0.30;99.90
16158;DHT22;8184;60.256;18.694;2023-11-21T13:36:35;0.20;99.90
16158;DHT22;8184;60.256;18.694;2023-11-21T13:39:04;0.30;99.90
16158;DHT22;8184;60.256;18.694;2023-11-21T13:41:35;0.20;99.90
16158;DHT22;8184;60.256;18.694;2023-11-21T13:44:08;0.20;99.90
16158;DHT22;8184;60.256;18.694;2023-11-21T13:46:44;0.20;99.90
16158;DHT22;8184;60.256;18.694;2023-11-21T13:49:17;0.20;99.90
16158;DHT22;8184;60.256;18.694;2023-11-21T13:51:48;0.20;99.90
16158;DHT22;8184;60.256;18.694;2023-11-21T13:54:19;0.10;99.90
16158;DHT22;8184;60.256;18.694;2023-11-21T13:56:50;0.10;99.90
16158;DHT22;8184;60.256;18.694;2023-11-21T13:59:18;0.10;99.90
16158;DHT22;8184;60.256;18.694;2023-11-21T14:01:50;0.00;99.90
16158;DHT22;8184;60.256;18.694;2023-11-21T14:04:25;0.00;99.90
16158;DHT22;8184;60.256;18.694;2023-11-21T14:07:14;-0.10;99.90
16158;DHT22;8184;60.256;18.694;2023-11-21T14:09:53;-0.10;99.90
16158;DHT22;8184;60.256;18.694;2023-11-21T14:12:23;-0.10;99.90
16158;DHT22;8184;60.256;18.694;2023-11-21T14:14:51;-0.10;99.90
16158;DHT22;8184;60.256;18.694;2023-11-21T14:17:19;-0.20;99.90
16158;DHT22;8184;60.256;18.694;2023-11-21T14:19:50;-0.10;99.90
16158;DHT22;8184;60.256;18.694;2023-11-21T14:22:19;-0.20;99.90
16158;DHT22;8184;60.256;18.694;2023-11-21T14:24:48;-0.30;99.90
16158;DHT22;8184;60.256;18.694;2023-11-21T14:27:19;-0.30;99.90
16158;DHT22;8184;60.256;18.694;2023-11-21T14:29:47;-0.30;99.90
16158;DHT22;8184;60.256;18.694;2023-11-21T14:32:16;-0.30;99.90
16158;DHT22;8184;60.256;18.694;2023-11-21T14:34:47;-0.30;99.90
16158;DHT22;8184;60.256;18.694;2023-11-21T14:37:18;-0.30;99.90
16158;DHT22;8184;60.256;18.694;2023-11-21T14:39:46;-0.30;99.90
16158;DHT22;8184;60.256;18.694;2023-11-21T14:42:16;-0.20;99.90
16158;DHT22;8184;60.256;18.694;2023-11-21T14:44:51;-0.20;99.90
16158;DHT22;8184;60.256;18.694;2023-11-21T14:47:30;-0.30;99.90
16158;DHT22;8184;60.256;18.694;2023-11-21T14:49:59;-0.30;99.90
16158;DHT22;8184;60.256;18.694;2023-11-21T14:52:49;-0.30;99.90
16158;DHT22;8184;60.256;18.694;2023-11-21T14:55:22;-0.40;99.90
16158;DHT22;8184;60.256;18.694;2023-11-21T14:57:58;-0.40;99.90
16158;DHT22;8184;60.256;18.694;2023-11-21T15:00:31;-0.40;99.90
16158;DHT22;8184;60.256;18.694;2023-11-21T15:03:12;-0.40;99.90
16158;DHT22;8184;60.256;18.694;2023-11-21T15:05:58;-0.30;99.90
16158;DHT22;8184;60.256;18.694;2023-11-21T15:08:38;-0.30;99.90
16158;DHT22;8184;60.256;18.694;2023-11-21T15:11:09;-0.30;99.90
16158;DHT22;8184;60.256;18.694;2023-11-21T15:13:41;-0.30;99.90
16158;DHT22;8184;60.256;18.694;2023-11-21T15:16:09;-0.30;99.90
16158;DHT22;8184;60.256;18.694;2023-11-21T15:18:41;-0.20;99.90
16158;DHT22;8184;60.256;18.694;2023-11-21T15:21:09;-0.30;99.90
16158;DHT22;8184;60.256;18.694;2023-11-21T15:23:40;-0.20;99.90
16158;DHT22;8184;60.256;18.694;2023-11-21T15:26:08;-0.30;99.90
16158;DHT22;8184;60.256;18.694;2023-11-21T15:28:37;-0.20;99.90
16158;DHT22;8184;60.256;18.694;2023-11-21T15:31:05;-0.20;99.90
16158;DHT22;8184;60.256;18.694;2023-11-21T15:33:35;-0.30;99.90
16158;DHT22;8184;60.256;18.694;2023-11-21T15:36:07;-0.30;99.90
16158;DHT22;8184;60.256;18.694;2023-11-21T15:38:36;-0.40;99.90
16158;DHT22;8184;60.256;18.694;2023-11-21T15:41:07;-0.40;99.90
16158;DHT22;8184;60.256;18.694;2023-11-21T15:43:38;-0.30;99.90
16158;DHT22;8184;60.256;18.694;2023-11-21T15:46:06;-0.40;99.90
16158;DHT22;8184;60.256;18.694;2023-11-21T15:48:35;-0.40;99.90
16158;DHT22;8184;60.256;18.694;2023-11-21T15:51:05;-0.40;99.90
16158;DHT22;8184;60.256;18.694;2023-11-21T15:53:37;-0.40;99.90
16158;DHT22;8184;60.256;18.694;2023-11-21T15:56:07;-0.40;99.90
16158;DHT22;8184;60.256;18.694;2023-11-21T15:58:39;-0.40;99.90
16158;DHT22;8184;60.256;18.694;2023-11-21T16:01:09;-0.40;99.90
16158;DHT22;8184;60.256;18.694;2023-11-21T16:03:39;-0.40;99.90
16158;DHT22;8184;60.256;18.694;2023-11-21T16:06:08;-0.40;99.90